Accueil
METAR-TAF:

METAR-TAF

Aéroports :

Gibraltar, Gibraltar

Aéroport international de Gibraltar

latitude: 36-09N, longitude: 005-21W, altitude: 5 m

Observation

Le bulletin a été fait il y a 1 heure et 3 minutes, à 02:50 UTC
Vent 10 kt de ouest/sud-ouest
Température 21°C
Humidité 73%
Pression 1014 hPa
Visibilité 10 km ou plus

METAR: LXGB 290250Z AUTO 25010KT 9999 // NCD 21/16 Q1014

Heure: 05:53 (03:53 UTC)

Prévision

Le bulletin a été fait il y a 11 heures et 12 minutes, à 16:41 UTC
Prévision valable du 28 à 18 UTC au 28 à 22 UTC
Vent 14 kt de ouest
Visibilité 10 km ou plus
Quelques nuages à une hauteur de 4000 ft
Temporairement
du 28 à 18 UTC au 28 à 22 UTC
Vent 17 kt de ouest/sud-ouest avec des rafales jusqu'à 27 kt
Probabilité 30% :
Temporairement
du 28 à 18 UTC au 28 à 22 UTC
Nuages épars à une hauteur de 2000 ft

TAF: LXGB 281641Z 2818/2822 27014KT 9999 FEW040 TEMPO 2818/2822 25017G27KT PROB30 TEMPO 2818/2822 SCT020 520002

Observations et prévisions météorologiques de plus de 4000 aéroports (messages METAR et TAF).

Les stations disponibles sont représentées par des disques jaunes et rouges sur la carte.

Passer la souris dessus pour voir le nom de la station.

Cliquer dessus pour voir les observations et prévisions météorologiques.

Pour changer de carte: cliquez sur les boutons verts avec une croix noire pour zoomer, sur le bouton vert avec un tiret pour effectuer un zoom arrière, ou sur les flèches vertes pour les cartes adjacentes.


METAR-TAF: